sensor_id;sensor_type;location;lat;lon;timestamp;P1;durP1;ratioP1;P2;durP2;ratioP2
14316;SDS011;7242;50.858;6.586;2022-10-28T00:01:40;9.80;;;3.90;;
14316;SDS011;7242;50.858;6.586;2022-10-28T00:04:40;8.07;;;3.73;;
14316;SDS011;7242;50.858;6.586;2022-10-28T00:07:42;15.93;;;4.50;;
14316;SDS011;7242;50.858;6.586;2022-10-28T00:10:43;8.47;;;4.00;;
14316;SDS011;7242;50.858;6.586;2022-10-28T00:13:44;7.73;;;3.70;;
14316;SDS011;7242;50.858;6.586;2022-10-28T00:16:46;9.87;;;4.13;;
14316;SDS011;7242;50.858;6.586;2022-10-28T00:19:47;10.90;;;3.90;;
14316;SDS011;7242;50.858;6.586;2022-10-28T00:22:48;8.63;;;3.80;;
14316;SDS011;7242;50.858;6.586;2022-10-28T00:25:49;8.63;;;3.90;;
14316;SDS011;7242;50.858;6.586;2022-10-28T00:28:53;7.43;;;3.50;;
14316;SDS011;7242;50.858;6.586;2022-10-28T00:31:55;9.70;;;3.80;;
14316;SDS011;7242;50.858;6.586;2022-10-28T00:34:57;9.33;;;3.30;;
14316;SDS011;7242;50.858;6.586;2022-10-28T00:37:58;7.63;;;3.63;;
14316;SDS011;7242;50.858;6.586;2022-10-28T00:40:59;10.03;;;4.10;;
14316;SDS011;7242;50.858;6.586;2022-10-28T00:47:38;11.60;;;3.60;;
14316;SDS011;7242;50.858;6.586;2022-10-28T00:50:54;10.50;;;3.80;;
14316;SDS011;7242;50.858;6.586;2022-10-28T00:53:55;8.47;;;3.97;;
14316;SDS011;7242;50.858;6.586;2022-10-28T00:56:56;10.17;;;3.80;;
14316;SDS011;7242;50.858;6.586;2022-10-28T01:00:03;11.63;;;4.10;;
14316;SDS011;7242;50.858;6.586;2022-10-28T01:03:07;9.70;;;3.80;;
14316;SDS011;7242;50.858;6.586;2022-10-28T01:06:09;10.60;;;3.87;;
14316;SDS011;7242;50.858;6.586;2022-10-28T01:09:10;8.63;;;4.13;;
14316;SDS011;7242;50.858;6.586;2022-10-28T01:15:27;8.97;;;3.50;;
14316;SDS011;7242;50.858;6.586;2022-10-28T01:18:43;10.00;;;4.03;;
14316;SDS011;7242;50.858;6.586;2022-10-28T01:25:03;9.07;;;3.80;;
14316;SDS011;7242;50.858;6.586;2022-10-28T01:31:40;8.93;;;3.83;;
14316;SDS011;7242;50.858;6.586;2022-10-28T01:41:42;7.33;;;3.47;;
14316;SDS011;7242;50.858;6.586;2022-10-28T01:48:01;10.40;;;4.10;;
14316;SDS011;7242;50.858;6.586;2022-10-28T01:51:03;8.77;;;4.27;;
14316;SDS011;7242;50.858;6.586;2022-10-28T01:54:10;8.53;;;3.70;;
14316;SDS011;7242;50.858;6.586;2022-10-28T01:57:15;10.87;;;4.30;;
14316;SDS011;7242;50.858;6.586;2022-10-28T02:00:18;6.90;;;3.90;;
14316;SDS011;7242;50.858;6.586;2022-10-28T02:03:19;9.40;;;3.90;;
14316;SDS011;7242;50.858;6.586;2022-10-28T02:06:20;8.13;;;3.83;;
14316;SDS011;7242;50.858;6.586;2022-10-28T02:09:33;6.07;;;3.83;;
14316;SDS011;7242;50.858;6.586;2022-10-28T02:12:39;9.83;;;4.30;;
14316;SDS011;7242;50.858;6.586;2022-10-28T02:15:51;9.27;;;4.10;;
14316;SDS011;7242;50.858;6.586;2022-10-28T02:22:28;7.03;;;4.00;;
14316;SDS011;7242;50.858;6.586;2022-10-28T02:25:40;7.13;;;4.23;;
14316;SDS011;7242;50.858;6.586;2022-10-28T02:28:55;8.63;;;4.30;;
14316;SDS011;7242;50.858;6.586;2022-10-28T02:32:04;8.37;;;4.70;;
14316;SDS011;7242;50.858;6.586;2022-10-28T02:35:09;11.20;;;4.20;;
14316;SDS011;7242;50.858;6.586;2022-10-28T02:38:13;12.97;;;4.37;;
14316;SDS011;7242;50.858;6.586;2022-10-28T02:41:18;8.57;;;4.70;;
14316;SDS011;7242;50.858;6.586;2022-10-28T02:44:24;7.93;;;4.33;;
14316;SDS011;7242;50.858;6.586;2022-10-28T02:47:29;6.73;;;4.77;;
14316;SDS011;7242;50.858;6.586;2022-10-28T02:50:33;6.77;;;4.23;;
14316;SDS011;7242;50.858;6.586;2022-10-28T02:53:39;8.33;;;4.60;;
14316;SDS011;7242;50.858;6.586;2022-10-28T02:57:00;8.37;;;4.43;;
14316;SDS011;7242;50.858;6.586;2022-10-28T03:00:07;7.93;;;4.27;;
14316;SDS011;7242;50.858;6.586;2022-10-28T03:03:10;9.33;;;4.47;;
14316;SDS011;7242;50.858;6.586;2022-10-28T03:06:12;9.50;;;4.50;;
14316;SDS011;7242;50.858;6.586;2022-10-28T03:09:13;10.00;;;4.47;;
14316;SDS011;7242;50.858;6.586;2022-10-28T03:12:14;7.90;;;4.30;;
14316;SDS011;7242;50.858;6.586;2022-10-28T03:15:15;8.43;;;4.80;;
14316;SDS011;7242;50.858;6.586;2022-10-28T03:18:16;7.60;;;4.27;;
14316;SDS011;7242;50.858;6.586;2022-10-28T03:21:17;8.63;;;4.60;;
14316;SDS011;7242;50.858;6.586;2022-10-28T03:24:18;11.83;;;5.30;;
14316;SDS011;7242;50.858;6.586;2022-10-28T03:27:19;7.97;;;5.10;;
14316;SDS011;7242;50.858;6.586;2022-10-28T03:30:20;5.93;;;4.73;;
14316;SDS011;7242;50.858;6.586;2022-10-28T03:33:21;7.53;;;4.43;;
14316;SDS011;7242;50.858;6.586;2022-10-28T03:36:22;9.80;;;4.70;;
14316;SDS011;7242;50.858;6.586;2022-10-28T03:39:23;9.63;;;4.93;;
14316;SDS011;7242;50.858;6.586;2022-10-28T03:42:24;7.60;;;4.30;;
14316;SDS011;7242;50.858;6.586;2022-10-28T03:45:25;10.57;;;5.00;;
14316;SDS011;7242;50.858;6.586;2022-10-28T03:48:26;8.27;;;4.60;;
14316;SDS011;7242;50.858;6.586;2022-10-28T03:51:27;9.50;;;4.37;;
14316;SDS011;7242;50.858;6.586;2022-10-28T03:54:28;13.93;;;5.50;;
14316;SDS011;7242;50.858;6.586;2022-10-28T03:57:30;10.00;;;4.63;;
14316;SDS011;7242;50.858;6.586;2022-10-28T04:00:31;8.13;;;4.63;;
14316;SDS011;7242;50.858;6.586;2022-10-28T04:03:33;7.93;;;4.70;;
14316;SDS011;7242;50.858;6.586;2022-10-28T04:06:34;8.20;;;4.97;;
14316;SDS011;7242;50.858;6.586;2022-10-28T04:09:35;9.60;;;4.70;;
14316;SDS011;7242;50.858;6.586;2022-10-28T04:12:35;14.57;;;5.17;;
14316;SDS011;7242;50.858;6.586;2022-10-28T04:15:37;10.03;;;4.60;;
14316;SDS011;7242;50.858;6.586;2022-10-28T04:18:38;11.10;;;5.53;;
14316;SDS011;7242;50.858;6.586;2022-10-28T04:21:40;9.60;;;5.00;;
14316;SDS011;7242;50.858;6.586;2022-10-28T04:24:41;8.97;;;4.80;;
14316;SDS011;7242;50.858;6.586;2022-10-28T04:27:45;14.27;;;4.90;;
14316;SDS011;7242;50.858;6.586;2022-10-28T04:30:46;9.73;;;5.07;;
14316;SDS011;7242;50.858;6.586;2022-10-28T04:33:47;11.57;;;5.13;;
14316;SDS011;7242;50.858;6.586;2022-10-28T04:36:48;11.30;;;4.63;;
14316;SDS011;7242;50.858;6.586;2022-10-28T04:39:49;8.40;;;4.73;;
14316;SDS011;7242;50.858;6.586;2022-10-28T04:42:50;9.37;;;5.00;;
14316;SDS011;7242;50.858;6.586;2022-10-28T04:45:51;10.27;;;5.07;;
14316;SDS011;7242;50.858;6.586;2022-10-28T04:48:52;10.73;;;4.60;;
14316;SDS011;7242;50.858;6.586;2022-10-28T04:51:53;9.10;;;4.93;;
14316;SDS011;7242;50.858;6.586;2022-10-28T04:54:54;9.30;;;4.97;;
14316;SDS011;7242;50.858;6.586;2022-10-28T04:57:56;9.47;;;5.27;;
14316;SDS011;7242;50.858;6.586;2022-10-28T05:00:58;8.60;;;5.20;;
14316;SDS011;7242;50.858;6.586;2022-10-28T05:04:04;7.13;;;4.87;;
14316;SDS011;7242;50.858;6.586;2022-10-28T05:07:05;10.07;;;4.93;;
14316;SDS011;7242;50.858;6.586;2022-10-28T05:10:06;13.07;;;5.50;;
14316;SDS011;7242;50.858;6.586;2022-10-28T05:13:07;9.67;;;4.87;;
14316;SDS011;7242;50.858;6.586;2022-10-28T05:16:09;11.10;;;5.33;;
14316;SDS011;7242;50.858;6.586;2022-10-28T05:19:09;6.83;;;4.60;;
14316;SDS011;7242;50.858;6.586;2022-10-28T05:22:11;9.30;;;4.93;;
14316;SDS011;7242;50.858;6.586;2022-10-28T05:25:11;11.43;;;5.20;;
14316;SDS011;7242;50.858;6.586;2022-10-28T05:28:13;13.97;;;5.13;;
14316;SDS011;7242;50.858;6.586;2022-10-28T05:31:14;10.33;;;5.50;;
14316;SDS011;7242;50.858;6.586;2022-10-28T05:34:15;9.07;;;4.87;;
14316;SDS011;7242;50.858;6.586;2022-10-28T05:37:17;12.47;;;5.17;;
14316;SDS011;7242;50.858;6.586;2022-10-28T05:40:19;7.43;;;4.83;;
14316;SDS011;7242;50.858;6.586;2022-10-28T05:43:21;7.47;;;4.87;;
14316;SDS011;7242;50.858;6.586;2022-10-28T05:46:22;8.47;;;5.17;;
14316;SDS011;7242;50.858;6.586;2022-10-28T05:49:23;8.00;;;4.80;;
14316;SDS011;7242;50.858;6.586;2022-10-28T05:52:24;10.87;;;5.60;;
14316;SDS011;7242;50.858;6.586;2022-10-28T05:55:26;10.17;;;5.07;;
14316;SDS011;7242;50.858;6.586;2022-10-28T05:58:28;11.57;;;5.20;;
14316;SDS011;7242;50.858;6.586;2022-10-28T06:01:30;11.70;;;5.30;;
14316;SDS011;7242;50.858;6.586;2022-10-28T06:04:31;9.63;;;5.50;;
14316;SDS011;7242;50.858;6.586;2022-10-28T06:07:32;12.73;;;5.17;;
14316;SDS011;7242;50.858;6.586;2022-10-28T06:10:36;10.97;;;5.53;;
14316;SDS011;7242;50.858;6.586;2022-10-28T06:13:37;7.10;;;4.93;;
14316;SDS011;7242;50.858;6.586;2022-10-28T06:16:38;12.23;;;5.40;;
14316;SDS011;7242;50.858;6.586;2022-10-28T06:19:39;10.03;;;5.27;;
14316;SDS011;7242;50.858;6.586;2022-10-28T06:22:47;10.27;;;5.30;;
14316;SDS011;7242;50.858;6.586;2022-10-28T06:25:56;9.47;;;5.30;;
14316;SDS011;7242;50.858;6.586;2022-10-28T06:28:58;10.10;;;5.23;;
14316;SDS011;7242;50.858;6.586;2022-10-28T06:32:00;8.67;;;4.80;;
14316;SDS011;7242;50.858;6.586;2022-10-28T06:35:01;10.97;;;5.13;;
14316;SDS011;7242;50.858;6.586;2022-10-28T06:38:02;10.50;;;5.07;;
14316;SDS011;7242;50.858;6.586;2022-10-28T06:41:03;12.60;;;5.23;;
14316;SDS011;7242;50.858;6.586;2022-10-28T06:44:04;14.07;;;5.47;;
14316;SDS011;7242;50.858;6.586;2022-10-28T06:47:05;10.57;;;4.93;;
14316;SDS011;7242;50.858;6.586;2022-10-28T06:50:07;14.73;;;5.77;;
14316;SDS011;7242;50.858;6.586;2022-10-28T06:53:08;7.40;;;4.67;;
14316;SDS011;7242;50.858;6.586;2022-10-28T06:56:09;14.00;;;5.03;;
14316;SDS011;7242;50.858;6.586;2022-10-28T06:59:10;10.97;;;5.00;;
14316;SDS011;7242;50.858;6.586;2022-10-28T07:02:11;11.37;;;4.87;;
14316;SDS011;7242;50.858;6.586;2022-10-28T07:05:12;10.40;;;4.77;;
14316;SDS011;7242;50.858;6.586;2022-10-28T07:08:13;12.27;;;4.70;;
14316;SDS011;7242;50.858;6.586;2022-10-28T07:11:14;9.97;;;5.00;;
14316;SDS011;7242;50.858;6.586;2022-10-28T07:14:16;11.30;;;4.77;;
14316;SDS011;7242;50.858;6.586;2022-10-28T07:17:16;12.53;;;5.10;;
14316;SDS011;7242;50.858;6.586;2022-10-28T07:20:17;13.03;;;5.00;;
14316;SDS011;7242;50.858;6.586;2022-10-28T07:23:19;14.57;;;5.63;;
14316;SDS011;7242;50.858;6.586;2022-10-28T07:26:20;12.03;;;4.90;;
14316;SDS011;7242;50.858;6.586;2022-10-28T07:29:25;12.73;;;4.83;;
14316;SDS011;7242;50.858;6.586;2022-10-28T07:32:30;14.70;;;5.03;;
14316;SDS011;7242;50.858;6.586;2022-10-28T07:35:31;10.73;;;4.30;;
14316;SDS011;7242;50.858;6.586;2022-10-28T07:38:33;12.43;;;4.80;;
14316;SDS011;7242;50.858;6.586;2022-10-28T07:41:35;11.47;;;4.73;;
14316;SDS011;7242;50.858;6.586;2022-10-28T07:44:37;8.37;;;4.57;;
14316;SDS011;7242;50.858;6.586;2022-10-28T07:47:38;9.70;;;4.27;;
14316;SDS011;7242;50.858;6.586;2022-10-28T07:50:39;10.33;;;4.67;;
14316;SDS011;7242;50.858;6.586;2022-10-28T07:53:41;14.07;;;4.60;;
14316;SDS011;7242;50.858;6.586;2022-10-28T07:56:42;11.73;;;4.60;;
14316;SDS011;7242;50.858;6.586;2022-10-28T07:59:43;12.73;;;4.60;;
14316;SDS011;7242;50.858;6.586;2022-10-28T08:02:44;10.17;;;4.33;;
14316;SDS011;7242;50.858;6.586;2022-10-28T08:05:46;13.33;;;4.37;;
14316;SDS011;7242;50.858;6.586;2022-10-28T08:08:51;12.10;;;4.73;;
14316;SDS011;7242;50.858;6.586;2022-10-28T08:11:54;10.70;;;4.70;;
14316;SDS011;7242;50.858;6.586;2022-10-28T08:14:56;10.80;;;4.53;;
14316;SDS011;7242;50.858;6.586;2022-10-28T08:17:57;12.10;;;4.53;;
14316;SDS011;7242;50.858;6.586;2022-10-28T08:20:58;10.10;;;4.40;;
14316;SDS011;7242;50.858;6.586;2022-10-28T08:24:00;10.00;;;4.17;;
14316;SDS011;7242;50.858;6.586;2022-10-28T08:27:01;13.70;;;4.77;;
14316;SDS011;7242;50.858;6.586;2022-10-28T08:30:02;12.70;;;4.67;;
14316;SDS011;7242;50.858;6.586;2022-10-28T08:33:03;13.77;;;4.70;;
14316;SDS011;7242;50.858;6.586;2022-10-28T08:36:05;15.00;;;5.13;;
14316;SDS011;7242;50.858;6.586;2022-10-28T08:39:06;13.07;;;4.90;;
14316;SDS011;7242;50.858;6.586;2022-10-28T08:45:52;14.43;;;4.97;;
14316;SDS011;7242;50.858;6.586;2022-10-28T08:49:01;11.27;;;4.17;;
14316;SDS011;7242;50.858;6.586;2022-10-28T08:55:18;11.73;;;4.17;;
14316;SDS011;7242;50.858;6.586;2022-10-28T08:58:31;17.37;;;4.47;;
14316;SDS011;7242;50.858;6.586;2022-10-28T09:04:41;12.43;;;4.30;;
14316;SDS011;7242;50.858;6.586;2022-10-28T09:07:43;11.27;;;4.53;;
14316;SDS011;7242;50.858;6.586;2022-10-28T09:17:37;15.17;;;5.30;;
14316;SDS011;7242;50.858;6.586;2022-10-28T09:20:53;11.50;;;4.37;;
14316;SDS011;7242;50.858;6.586;2022-10-28T09:23:56;14.67;;;5.00;;
14316;SDS011;7242;50.858;6.586;2022-10-28T09:34:12;12.03;;;3.93;;
14316;SDS011;7242;50.858;6.586;2022-10-28T09:40:27;9.03;;;3.80;;
14316;SDS011;7242;50.858;6.586;2022-10-28T09:43:31;13.50;;;3.67;;
14316;SDS011;7242;50.858;6.586;2022-10-28T09:46:34;9.27;;;3.80;;
14316;SDS011;7242;50.858;6.586;2022-10-28T09:49:36;12.27;;;3.97;;
14316;SDS011;7242;50.858;6.586;2022-10-28T09:52:42;9.60;;;3.37;;
14316;SDS011;7242;50.858;6.586;2022-10-28T09:55:49;9.00;;;3.60;;
14316;SDS011;7242;50.858;6.586;2022-10-28T09:58:50;12.10;;;4.17;;
14316;SDS011;7242;50.858;6.586;2022-10-28T10:01:52;14.83;;;3.60;;
14316;SDS011;7242;50.858;6.586;2022-10-28T10:04:54;8.90;;;3.60;;
14316;SDS011;7242;50.858;6.586;2022-10-28T10:07:56;8.63;;;3.57;;
14316;SDS011;7242;50.858;6.586;2022-10-28T10:11:25;10.30;;;3.60;;
14316;SDS011;7242;50.858;6.586;2022-10-28T10:14:23;11.37;;;3.60;;
14316;SDS011;7242;50.858;6.586;2022-10-28T10:17:34;9.93;;;3.33;;
14316;SDS011;7242;50.858;6.586;2022-10-28T10:20:48;11.63;;;3.30;;
14316;SDS011;7242;50.858;6.586;2022-10-28T10:23:49;12.13;;;3.30;;
14316;SDS011;7242;50.858;6.586;2022-10-28T10:26:50;10.47;;;3.23;;
14316;SDS011;7242;50.858;6.586;2022-10-28T10:29:52;11.07;;;3.60;;
14316;SDS011;7242;50.858;6.586;2022-10-28T10:32:54;10.87;;;3.50;;
14316;SDS011;7242;50.858;6.586;2022-10-28T10:36:02;15.20;;;3.90;;
14316;SDS011;7242;50.858;6.586;2022-10-28T10:39:19;9.27;;;3.37;;
14316;SDS011;7242;50.858;6.586;2022-10-28T10:42:25;7.67;;;2.80;;
14316;SDS011;7242;50.858;6.586;2022-10-28T10:45:27;12.13;;;3.30;;
14316;SDS011;7242;50.858;6.586;2022-10-28T10:48:29;9.33;;;3.07;;
14316;SDS011;7242;50.858;6.586;2022-10-28T10:51:31;11.67;;;3.50;;
14316;SDS011;7242;50.858;6.586;2022-10-28T10:54:33;10.30;;;3.60;;
14316;SDS011;7242;50.858;6.586;2022-10-28T10:57:36;9.50;;;3.40;;
14316;SDS011;7242;50.858;6.586;2022-10-28T11:00:37;10.23;;;2.87;;
14316;SDS011;7242;50.858;6.586;2022-10-28T11:03:47;9.47;;;3.60;;
14316;SDS011;7242;50.858;6.586;2022-10-28T11:06:50;7.50;;;3.20;;
14316;SDS011;7242;50.858;6.586;2022-10-28T11:09:53;11.37;;;3.43;;
14316;SDS011;7242;50.858;6.586;2022-10-28T11:12:56;9.70;;;2.93;;
14316;SDS011;7242;50.858;6.586;2022-10-28T11:16:03;10.73;;;3.40;;
14316;SDS011;7242;50.858;6.586;2022-10-28T11:19:14;11.57;;;3.37;;
14316;SDS011;7242;50.858;6.586;2022-10-28T11:25:39;8.50;;;2.83;;
14316;SDS011;7242;50.858;6.586;2022-10-28T11:28:49;10.23;;;3.40;;
14316;SDS011;7242;50.858;6.586;2022-10-28T11:32:11;12.60;;;3.23;;
14316;SDS011;7242;50.858;6.586;2022-10-28T11:39:18;12.33;;;2.90;;
14316;SDS011;7242;50.858;6.586;2022-10-28T11:52:15;10.33;;;3.27;;
14316;SDS011;7242;50.858;6.586;2022-10-28T11:55:28;14.20;;;3.50;;
14316;SDS011;7242;50.858;6.586;2022-10-28T12:08:00;13.90;;;3.47;;
14316;SDS011;7242;50.858;6.586;2022-10-28T12:14:34;13.07;;;3.20;;
14316;SDS011;7242;50.858;6.586;2022-10-28T12:17:39;9.70;;;3.27;;
14316;SDS011;7242;50.858;6.586;2022-10-28T12:21:30;14.17;;;3.50;;
14316;SDS011;7242;50.858;6.586;2022-10-28T12:24:33;10.60;;;3.27;;
14316;SDS011;7242;50.858;6.586;2022-10-28T12:27:36;14.93;;;3.30;;
14316;SDS011;7242;50.858;6.586;2022-10-28T12:30:41;12.70;;;3.13;;
14316;SDS011;7242;50.858;6.586;2022-10-28T12:33:44;9.10;;;2.90;;
14316;SDS011;7242;50.858;6.586;2022-10-28T12:37:08;8.60;;;3.07;;
14316;SDS011;7242;50.858;6.586;2022-10-28T12:40:17;10.17;;;3.13;;
14316;SDS011;7242;50.858;6.586;2022-10-28T12:43:22;15.20;;;3.50;;
14316;SDS011;7242;50.858;6.586;2022-10-28T12:57:13;10.27;;;3.00;;
14316;SDS011;7242;50.858;6.586;2022-10-28T13:00:25;10.20;;;3.30;;
14316;SDS011;7242;50.858;6.586;2022-10-28T13:03:29;8.83;;;2.97;;
14316;SDS011;7242;50.858;6.586;2022-10-28T13:13:07;12.07;;;3.57;;
14316;SDS011;7242;50.858;6.586;2022-10-28T13:26:21;14.10;;;3.67;;
14316;SDS011;7242;50.858;6.586;2022-10-28T13:29:25;10.17;;;3.10;;
14316;SDS011;7242;50.858;6.586;2022-10-28T13:32:33;9.80;;;3.67;;
14316;SDS011;7242;50.858;6.586;2022-10-28T13:35:34;14.30;;;4.00;;
14316;SDS011;7242;50.858;6.586;2022-10-28T13:38:39;10.17;;;3.70;;
14316;SDS011;7242;50.858;6.586;2022-10-28T13:41:41;13.63;;;3.87;;
14316;SDS011;7242;50.858;6.586;2022-10-28T13:44:52;10.50;;;2.83;;
14316;SDS011;7242;50.858;6.586;2022-10-28T13:51:45;10.70;;;3.30;;
14316;SDS011;7242;50.858;6.586;2022-10-28T13:57:57;10.47;;;3.57;;
14316;SDS011;7242;50.858;6.586;2022-10-28T14:04:40;10.47;;;3.70;;
14316;SDS011;7242;50.858;6.586;2022-10-28T14:14:01;8.00;;;3.23;;
14316;SDS011;7242;50.858;6.586;2022-10-28T14:17:03;9.23;;;3.30;;
14316;SDS011;7242;50.858;6.586;2022-10-28T14:30:17;10.30;;;4.03;;
14316;SDS011;7242;50.858;6.586;2022-10-28T14:33:20;10.97;;;3.90;;
14316;SDS011;7242;50.858;6.586;2022-10-28T14:36:33;10.83;;;3.07;;
14316;SDS011;7242;50.858;6.586;2022-10-28T14:44:00;8.10;;;3.20;;
14316;SDS011;7242;50.858;6.586;2022-10-28T14:50:05;8.03;;;3.27;;
14316;SDS011;7242;50.858;6.586;2022-10-28T14:53:11;12.07;;;3.80;;
14316;SDS011;7242;50.858;6.586;2022-10-28T14:56:22;7.33;;;3.33;;
14316;SDS011;7242;50.858;6.586;2022-10-28T15:02:34;9.57;;;3.80;;
14316;SDS011;7242;50.858;6.586;2022-10-28T15:05:37;12.17;;;4.17;;
14316;SDS011;7242;50.858;6.586;2022-10-28T15:08:38;12.47;;;3.50;;
14316;SDS011;7242;50.858;6.586;2022-10-28T15:11:39;14.57;;;4.07;;
14316;SDS011;7242;50.858;6.586;2022-10-28T15:17:52;11.33;;;3.77;;
14316;SDS011;7242;50.858;6.586;2022-10-28T15:21:09;8.20;;;3.57;;
14316;SDS011;7242;50.858;6.586;2022-10-28T15:24:13;9.37;;;3.20;;
14316;SDS011;7242;50.858;6.586;2022-10-28T15:27:14;10.00;;;3.60;;
14316;SDS011;7242;50.858;6.586;2022-10-28T15:30:22;10.27;;;3.57;;
14316;SDS011;7242;50.858;6.586;2022-10-28T15:33:28;10.17;;;3.70;;
14316;SDS011;7242;50.858;6.586;2022-10-28T15:36:30;12.60;;;3.83;;
14316;SDS011;7242;50.858;6.586;2022-10-28T15:39:31;8.10;;;3.30;;
14316;SDS011;7242;50.858;6.586;2022-10-28T15:42:36;7.37;;;3.67;;
14316;SDS011;7242;50.858;6.586;2022-10-28T15:45:39;8.47;;;3.80;;
14316;SDS011;7242;50.858;6.586;2022-10-28T15:48:40;7.37;;;4.00;;
14316;SDS011;7242;50.858;6.586;2022-10-28T15:51:41;11.70;;;3.90;;
14316;SDS011;7242;50.858;6.586;2022-10-28T15:58:30;8.00;;;3.80;;
14316;SDS011;7242;50.858;6.586;2022-10-28T16:04:40;11.03;;;4.10;;
14316;SDS011;7242;50.858;6.586;2022-10-28T16:07:43;10.23;;;3.70;;
14316;SDS011;7242;50.858;6.586;2022-10-28T16:10:49;8.80;;;3.67;;
14316;SDS011;7242;50.858;6.586;2022-10-28T16:13:50;7.83;;;3.63;;
14316;SDS011;7242;50.858;6.586;2022-10-28T16:16:51;7.63;;;3.37;;
14316;SDS011;7242;50.858;6.586;2022-10-28T16:19:56;9.80;;;3.60;;
14316;SDS011;7242;50.858;6.586;2022-10-28T16:22:58;10.40;;;4.23;;
14316;SDS011;7242;50.858;6.586;2022-10-28T16:25:59;8.30;;;4.03;;
14316;SDS011;7242;50.858;6.586;2022-10-28T16:29:00;9.30;;;3.80;;
14316;SDS011;7242;50.858;6.586;2022-10-28T16:32:01;12.80;;;4.17;;
14316;SDS011;7242;50.858;6.586;2022-10-28T16:35:02;8.70;;;4.03;;
14316;SDS011;7242;50.858;6.586;2022-10-28T16:38:11;7.83;;;3.80;;
14316;SDS011;7242;50.858;6.586;2022-10-28T16:41:15;13.40;;;4.80;;
14316;SDS011;7242;50.858;6.586;2022-10-28T16:44:16;10.20;;;4.27;;
14316;SDS011;7242;50.858;6.586;2022-10-28T16:47:19;9.77;;;4.40;;
14316;SDS011;7242;50.858;6.586;2022-10-28T16:50:22;17.13;;;8.43;;
14316;SDS011;7242;50.858;6.586;2022-10-28T16:53:23;16.07;;;8.20;;
14316;SDS011;7242;50.858;6.586;2022-10-28T16:56:24;15.70;;;6.87;;
14316;SDS011;7242;50.858;6.586;2022-10-28T16:59:25;10.20;;;5.40;;
14316;SDS011;7242;50.858;6.586;2022-10-28T17:02:30;11.83;;;5.07;;
14316;SDS011;7242;50.858;6.586;2022-10-28T17:05:31;10.80;;;4.80;;
14316;SDS011;7242;50.858;6.586;2022-10-28T17:08:33;11.93;;;4.93;;
14316;SDS011;7242;50.858;6.586;2022-10-28T17:11:34;11.77;;;4.80;;
14316;SDS011;7242;50.858;6.586;2022-10-28T17:14:35;9.50;;;4.20;;
14316;SDS011;7242;50.858;6.586;2022-10-28T17:17:36;10.73;;;4.30;;
14316;SDS011;7242;50.858;6.586;2022-10-28T17:20:37;7.40;;;3.67;;
14316;SDS011;7242;50.858;6.586;2022-10-28T17:23:39;10.93;;;4.40;;
14316;SDS011;7242;50.858;6.586;2022-10-28T17:26:39;8.67;;;4.30;;
14316;SDS011;7242;50.858;6.586;2022-10-28T17:29:43;8.27;;;4.17;;
14316;SDS011;7242;50.858;6.586;2022-10-28T17:32:46;11.23;;;4.37;;
14316;SDS011;7242;50.858;6.586;2022-10-28T17:35:49;12.33;;;4.00;;
14316;SDS011;7242;50.858;6.586;2022-10-28T17:38:49;9.47;;;4.13;;
14316;SDS011;7242;50.858;6.586;2022-10-28T17:41:51;9.10;;;4.53;;
14316;SDS011;7242;50.858;6.586;2022-10-28T17:44:52;8.97;;;4.50;;
14316;SDS011;7242;50.858;6.586;2022-10-28T17:47:53;13.03;;;4.53;;
14316;SDS011;7242;50.858;6.586;2022-10-28T17:50:54;11.43;;;4.40;;
14316;SDS011;7242;50.858;6.586;2022-10-28T17:53:55;17.57;;;4.77;;
14316;SDS011;7242;50.858;6.586;2022-10-28T17:56:57;14.37;;;4.63;;
14316;SDS011;7242;50.858;6.586;2022-10-28T17:59:58;11.83;;;4.47;;
14316;SDS011;7242;50.858;6.586;2022-10-28T18:02:59;10.30;;;4.70;;
14316;SDS011;7242;50.858;6.586;2022-10-28T18:06:01;13.07;;;4.50;;
14316;SDS011;7242;50.858;6.586;2022-10-28T18:09:02;11.20;;;4.57;;
14316;SDS011;7242;50.858;6.586;2022-10-28T18:12:03;11.87;;;4.33;;
14316;SDS011;7242;50.858;6.586;2022-10-28T18:15:05;9.30;;;4.47;;
14316;SDS011;7242;50.858;6.586;2022-10-28T18:18:08;10.00;;;4.07;;
14316;SDS011;7242;50.858;6.586;2022-10-28T18:21:10;10.07;;;4.57;;
14316;SDS011;7242;50.858;6.586;2022-10-28T18:24:12;13.43;;;5.23;;
14316;SDS011;7242;50.858;6.586;2022-10-28T18:27:13;13.70;;;4.50;;
14316;SDS011;7242;50.858;6.586;2022-10-28T18:30:14;11.47;;;4.60;;
14316;SDS011;7242;50.858;6.586;2022-10-28T18:33:15;11.10;;;4.53;;
14316;SDS011;7242;50.858;6.586;2022-10-28T18:36:20;8.87;;;4.47;;
14316;SDS011;7242;50.858;6.586;2022-10-28T18:39:22;9.27;;;4.37;;
14316;SDS011;7242;50.858;6.586;2022-10-28T18:42:23;11.53;;;4.43;;
14316;SDS011;7242;50.858;6.586;2022-10-28T18:45:25;7.97;;;4.57;;
14316;SDS011;7242;50.858;6.586;2022-10-28T18:48:31;12.00;;;4.50;;
14316;SDS011;7242;50.858;6.586;2022-10-28T18:51:33;7.33;;;4.20;;
14316;SDS011;7242;50.858;6.586;2022-10-28T18:54:38;9.93;;;4.67;;
14316;SDS011;7242;50.858;6.586;2022-10-28T18:57:48;12.23;;;5.30;;
14316;SDS011;7242;50.858;6.586;2022-10-28T19:00:49;10.83;;;4.33;;
14316;SDS011;7242;50.858;6.586;2022-10-28T19:03:54;11.20;;;4.70;;
14316;SDS011;7242;50.858;6.586;2022-10-28T19:07:00;11.70;;;5.10;;
14316;SDS011;7242;50.858;6.586;2022-10-28T19:10:00;13.27;;;5.57;;
14316;SDS011;7242;50.858;6.586;2022-10-28T19:13:02;10.60;;;4.83;;
14316;SDS011;7242;50.858;6.586;2022-10-28T19:16:04;10.97;;;4.73;;
14316;SDS011;7242;50.858;6.586;2022-10-28T19:19:05;8.90;;;4.73;;
14316;SDS011;7242;50.858;6.586;2022-10-28T19:22:07;11.67;;;4.97;;
14316;SDS011;7242;50.858;6.586;2022-10-28T19:25:09;9.83;;;4.73;;
14316;SDS011;7242;50.858;6.586;2022-10-28T19:28:10;9.83;;;4.80;;
14316;SDS011;7242;50.858;6.586;2022-10-28T19:31:13;9.30;;;4.50;;
14316;SDS011;7242;50.858;6.586;2022-10-28T19:34:14;11.37;;;4.40;;
14316;SDS011;7242;50.858;6.586;2022-10-28T19:37:15;10.47;;;4.60;;
14316;SDS011;7242;50.858;6.586;2022-10-28T19:40:16;12.43;;;5.37;;
14316;SDS011;7242;50.858;6.586;2022-10-28T19:43:18;11.23;;;4.93;;
14316;SDS011;7242;50.858;6.586;2022-10-28T19:46:19;11.40;;;6.07;;
14316;SDS011;7242;50.858;6.586;2022-10-28T19:49:20;9.03;;;5.50;;
14316;SDS011;7242;50.858;6.586;2022-10-28T19:52:21;12.03;;;5.53;;
14316;SDS011;7242;50.858;6.586;2022-10-28T19:55:23;11.10;;;5.30;;
14316;SDS011;7242;50.858;6.586;2022-10-28T19:58:24;9.47;;;4.97;;
14316;SDS011;7242;50.858;6.586;2022-10-28T20:01:26;9.80;;;5.37;;
14316;SDS011;7242;50.858;6.586;2022-10-28T20:04:28;9.33;;;5.13;;
14316;SDS011;7242;50.858;6.586;2022-10-28T20:07:29;12.23;;;5.23;;
14316;SDS011;7242;50.858;6.586;2022-10-28T20:10:31;14.17;;;5.77;;
14316;SDS011;7242;50.858;6.586;2022-10-28T20:13:32;10.63;;;5.03;;
14316;SDS011;7242;50.858;6.586;2022-10-28T20:16:34;9.37;;;5.40;;
14316;SDS011;7242;50.858;6.586;2022-10-28T20:19:35;12.63;;;5.90;;
14316;SDS011;7242;50.858;6.586;2022-10-28T20:22:36;12.03;;;5.37;;
14316;SDS011;7242;50.858;6.586;2022-10-28T20:25:37;10.30;;;5.03;;
14316;SDS011;7242;50.858;6.586;2022-10-28T20:28:38;10.97;;;5.10;;
14316;SDS011;7242;50.858;6.586;2022-10-28T20:31:39;9.30;;;5.37;;
14316;SDS011;7242;50.858;6.586;2022-10-28T20:34:41;10.07;;;5.17;;
14316;SDS011;7242;50.858;6.586;2022-10-28T20:37:42;11.23;;;5.57;;
14316;SDS011;7242;50.858;6.586;2022-10-28T20:40:46;9.20;;;5.00;;
14316;SDS011;7242;50.858;6.586;2022-10-28T20:43:48;9.87;;;5.40;;
14316;SDS011;7242;50.858;6.586;2022-10-28T20:46:51;12.27;;;4.63;;
14316;SDS011;7242;50.858;6.586;2022-10-28T20:49:52;10.93;;;5.23;;
14316;SDS011;7242;50.858;6.586;2022-10-28T20:52:53;10.60;;;5.93;;
14316;SDS011;7242;50.858;6.586;2022-10-28T20:55:55;11.40;;;5.53;;
14316;SDS011;7242;50.858;6.586;2022-10-28T20:58:57;12.53;;;6.10;;
14316;SDS011;7242;50.858;6.586;2022-10-28T21:01:58;9.67;;;5.70;;
14316;SDS011;7242;50.858;6.586;2022-10-28T21:04:59;11.77;;;5.40;;
14316;SDS011;7242;50.858;6.586;2022-10-28T21:08:00;11.90;;;5.70;;
14316;SDS011;7242;50.858;6.586;2022-10-28T21:11:05;11.57;;;5.13;;